createdAt,value
2019-05-05T00:00:37.118Z,99908.42
2019-05-05T00:03:17.194Z,99914.70
2019-05-05T00:05:48.202Z,99917.84
2019-05-05T00:08:17.871Z,99920.05
2019-05-05T00:11:01.507Z,99918.97
2019-05-05T00:13:34.563Z,99924.80
2019-05-05T00:16:21.563Z,99925.28
2019-05-05T00:18:54.265Z,99932.30
2019-05-05T00:21:28.215Z,99926.77
2019-05-05T00:23:57.889Z,99932.73
2019-05-05T00:26:27.259Z,99927.42
2019-05-05T00:28:56.634Z,99930.41
2019-05-05T00:31:26.382Z,99931.50
2019-05-05T00:33:55.734Z,99932.91
2019-05-05T00:36:25.109Z,99934.33
2019-05-05T00:38:55.303Z,99938.83
2019-05-05T00:41:25.380Z,99938.72
2019-05-05T00:43:55.475Z,99946.09
2019-05-05T00:46:44.654Z,99944.30
2019-05-05T00:49:14.512Z,99946.02
2019-05-05T00:51:44.385Z,99950.24
2019-05-05T00:54:14.913Z,99954.02
2019-05-05T00:56:45.018Z,99955.87
2019-05-05T00:59:16.235Z,99956.28
2019-05-05T01:01:49.908Z,99952.88
2019-05-05T01:04:21.006Z,99953.59
2019-05-05T01:06:50.364Z,99955.56
2019-05-05T01:09:25.235Z,99951.34
2019-05-05T01:11:55.091Z,99952.75
2019-05-05T01:14:25.039Z,99957.63
2019-05-05T01:16:54.675Z,99960.11
2019-05-05T01:19:24.461Z,99964.48
2019-05-05T01:21:54.442Z,99964.96
2019-05-05T01:24:24.877Z,99970.11
2019-05-05T01:26:55.106Z,99969.47
2019-05-05T01:29:25.253Z,99967.19
2019-05-05T01:31:56.436Z,99964.72
2019-05-05T01:34:47.995Z,99966.33
2019-05-05T01:37:21.527Z,99965.11
2019-05-05T01:39:58.510Z,99962.14
2019-05-05T01:42:27.874Z,99962.03
2019-05-05T01:44:57.231Z,99966.08
2019-05-05T01:47:27.210Z,99968.67
2019-05-05T01:49:56.603Z,99967.94
2019-05-05T01:52:26.035Z,99964.35
2019-05-05T01:54:55.406Z,99964.02
2019-05-05T01:57:25.311Z,99968.22
2019-05-05T01:59:55.383Z,99968.41
2019-05-05T02:02:25.226Z,99972.52
2019-05-05T02:04:55.475Z,99978.16
2019-05-05T02:07:25.213Z,99969.38
2019-05-05T02:09:55.513Z,99976.32
2019-05-05T02:12:25.051Z,99977.21
2019-05-05T02:14:55.232Z,99973.23
2019-05-05T02:17:24.897Z,99975.50
2019-05-05T02:19:55.083Z,99975.73
2019-05-05T02:22:25.380Z,99979.70
2019-05-05T02:24:55.235Z,99983.14
2019-05-05T02:27:25.328Z,99977.30
2019-05-05T02:29:59.347Z,99982.65
2019-05-05T02:32:46.612Z,99984.03
2019-05-05T02:35:16.861Z,99988.27
2019-05-05T02:37:46.786Z,99993.87
2019-05-05T02:40:17.196Z,99992.05
2019-05-05T02:42:47.878Z,99987.81
2019-05-05T02:45:30.517Z,99986.92
2019-05-05T02:48:01.692Z,99992.50
2019-05-05T02:50:51.050Z,99990.95
2019-05-05T02:53:06.429Z,99992.41
2019-05-05T02:55:36.195Z,99997.60
2019-05-05T02:58:05.706Z,99998.16
2019-05-05T03:00:54.233Z,99996.13
2019-05-05T03:03:24.721Z,99992.45
2019-05-05T03:05:55.231Z,99995.23
2019-05-05T03:08:27.568Z,99998.89
2019-05-05T03:11:00.197Z,99993.72
2019-05-05T03:13:33.693Z,99992.19
2019-05-05T03:16:21.148Z,99991.05
2019-05-05T03:18:52.062Z,99996.97
2019-05-05T03:21:24.164Z,99993.57
2019-05-05T03:23:54.687Z,99994.13
2019-05-05T03:26:25.120Z,99989.58
2019-05-05T03:28:56.541Z,99998.38
2019-05-05T03:31:26.802Z,99995.77
2019-05-05T03:33:56.441Z,99996.65
2019-05-05T03:36:28.108Z,99994.67
2019-05-05T03:38:57.627Z,99997.20
2019-05-05T03:41:47.723Z,100001.84
2019-05-05T03:44:27.897Z,100002.89
2019-05-05T03:46:57.513Z,100003.36
2019-05-05T03:49:27.903Z,100000.34
2019-05-05T03:51:57.629Z,100008.37
2019-05-05T03:54:28.021Z,100009.63
2019-05-05T03:57:09.929Z,100015.55
2019-05-05T03:59:44.277Z,100015.37
2019-05-05T04:02:17.988Z,100014.61
2019-05-05T04:04:55.119Z,100021.16
2019-05-05T04:07:24.993Z,100019.09
2019-05-05T04:09:54.441Z,100021.69
2019-05-05T04:12:24.324Z,100020.54
2019-05-05T04:14:54.743Z,100023.03
2019-05-05T04:17:33.651Z,100033.93
2019-05-05T04:20:05.434Z,100037.76
2019-05-05T04:22:34.809Z,100039.44
2019-05-05T04:25:05.257Z,100039.17
2019-05-05T04:27:34.623Z,100037.95
2019-05-05T04:30:06.164Z,100032.86
2019-05-05T04:32:35.554Z,100031.23
2019-05-05T04:35:06.740Z,100029.42
2019-05-05T04:37:36.103Z,100034.11
2019-05-05T04:40:05.844Z,100033.89
2019-05-05T04:42:35.210Z,100035.57
2019-05-05T04:45:07.014Z,100045.02
2019-05-05T04:47:56.246Z,100051.84
2019-05-05T04:50:34.561Z,100058.80
2019-05-05T04:53:08.360Z,100060.84
2019-05-05T04:55:38.040Z,100060.15
2019-05-05T04:58:07.676Z,100060.13
2019-05-05T05:00:37.068Z,100063.03
2019-05-05T05:03:10.972Z,100061.19
2019-05-05T05:05:56.722Z,100064.14
2019-05-05T05:08:26.103Z,100062.25
2019-05-05T05:10:55.472Z,100067.25
2019-05-05T05:13:25.166Z,100071.02
2019-05-05T05:15:54.582Z,100078.53
2019-05-05T05:18:24.273Z,100081.23
2019-05-05T05:20:54.898Z,100085.31
2019-05-05T05:23:24.770Z,100093.50
2019-05-05T05:25:54.545Z,100087.41
2019-05-05T05:28:24.022Z,100094.73
2019-05-05T05:30:54.607Z,100099.44
2019-05-05T05:33:24.058Z,100101.39
2019-05-05T05:35:54.630Z,100099.13
2019-05-05T05:38:25.007Z,100098.34
2019-05-05T05:40:56.019Z,100092.45
2019-05-05T05:43:33.416Z,100101.91
2019-05-05T05:46:04.509Z,100099.05
2019-05-05T05:48:35.487Z,100093.84
2019-05-05T05:51:09.233Z,100095.72
2019-05-05T05:53:38.939Z,100099.42
2019-05-05T05:56:08.317Z,100100.97
2019-05-05T05:58:37.726Z,100105.02
2019-05-05T06:01:07.083Z,100108.61
2019-05-05T06:03:36.459Z,100115.50
2019-05-05T06:06:06.102Z,100119.56
2019-05-05T06:08:35.470Z,100121.20
2019-05-05T06:11:04.833Z,100124.83
2019-05-05T06:13:34.378Z,100130.34
2019-05-05T06:16:04.392Z,100131.05
2019-05-05T06:18:34.698Z,100135.65
2019-05-05T06:21:04.670Z,100141.19
2019-05-05T06:23:34.543Z,100144.31
2019-05-05T06:26:06.940Z,100140.82
2019-05-05T06:28:35.098Z,100140.88
2019-05-05T06:31:04.925Z,100140.57
2019-05-05T06:33:34.799Z,100139.33
2019-05-05T06:36:04.344Z,100141.95
2019-05-05T06:38:34.528Z,100145.37
2019-05-05T06:41:08.741Z,100151.52
2019-05-05T06:43:41.033Z,100152.25
2019-05-05T06:46:23.516Z,100157.05
2019-05-05T06:48:53.885Z,100158.80
2019-05-05T06:51:24.534Z,100153.41
2019-05-05T06:53:54.127Z,100152.16
2019-05-05T06:56:23.831Z,100153.11
2019-05-05T06:58:54.025Z,100154.40
2019-05-05T07:01:24.764Z,100150.81
2019-05-05T07:03:54.259Z,100148.20
2019-05-05T07:06:23.956Z,100137.75
2019-05-05T07:08:54.548Z,100146.94
2019-05-05T07:11:24.227Z,100142.20
2019-05-05T07:13:53.853Z,100140.08
2019-05-05T07:16:24.319Z,100142.25
2019-05-05T07:18:54.130Z,100147.48
2019-05-05T07:21:23.907Z,100145.40
2019-05-05T07:23:54.315Z,100144.23
2019-05-05T07:26:23.940Z,100148.88
2019-05-05T07:28:54.099Z,100149.90
2019-05-05T07:31:23.990Z,100150.66
2019-05-05T07:33:54.404Z,100151.43
2019-05-05T07:36:44.299Z,100155.85
2019-05-05T07:39:14.374Z,100149.50
2019-05-05T07:41:44.771Z,100158.50
2019-05-05T07:44:25.874Z,100157.33
2019-05-05T07:46:46.117Z,100158.83
2019-05-05T07:49:16.453Z,100154.75
2019-05-05T07:51:46.175Z,100157.09
2019-05-05T07:54:16.146Z,100155.89
2019-05-05T07:56:46.483Z,100152.18
2019-05-05T07:59:16.298Z,100148.69
2019-05-05T08:01:46.825Z,100146.36
2019-05-05T08:04:16.305Z,100143.52
2019-05-05T08:06:46.580Z,100146.91
2019-05-05T08:09:16.348Z,100139.88
2019-05-05T08:11:46.800Z,100143.98
2019-05-05T08:14:16.609Z,100143.73
2019-05-05T08:16:56.979Z,100146.55
2019-05-05T08:19:44.381Z,100151.65
2019-05-05T08:22:14.267Z,100151.75
2019-05-05T08:25:05.743Z,100152.27
2019-05-05T08:27:37.328Z,100156.69
2019-05-05T08:30:25.444Z,100150.59
2019-05-05T08:32:55.007Z,100160.22
2019-05-05T08:35:24.521Z,100158.96
2019-05-05T08:37:54.314Z,100160.20
2019-05-05T08:40:24.044Z,100161.52
2019-05-05T08:42:54.056Z,100155.64
2019-05-05T08:45:26.524Z,100157.08
2019-05-05T08:47:54.706Z,100155.41
2019-05-05T08:50:26.960Z,100165.23
2019-05-05T08:52:55.292Z,100159.34
2019-05-05T08:55:28.129Z,100156.89
2019-05-05T08:57:56.569Z,100169.47
2019-05-05T09:00:25.911Z,100164.22
2019-05-05T09:02:55.360Z,100166.55
2019-05-05T09:05:24.672Z,100171.03
2019-05-05T09:07:54.784Z,100173.66
2019-05-05T09:10:24.336Z,100169.79
2019-05-05T09:12:54.380Z,100169.66
2019-05-05T09:15:24.370Z,100166.33
2019-05-05T09:17:54.519Z,100168.61
2019-05-05T09:20:24.402Z,100174.45
2019-05-05T09:22:57.137Z,100169.68
2019-05-05T09:25:34.156Z,100177.63
2019-05-05T09:28:14.837Z,100172.97
2019-05-05T09:30:46.223Z,100174.19
2019-05-05T09:33:18.294Z,100173.77
2019-05-05T09:35:47.202Z,100157.45
2019-05-05T09:38:17.228Z,100163.59
2019-05-05T09:40:46.622Z,100165.32
2019-05-05T09:43:16.147Z,100158.80
2019-05-05T09:45:45.523Z,100158.09
2019-05-05T09:48:15.255Z,100160.98
2019-05-05T09:50:44.698Z,100159.37
2019-05-05T09:53:14.647Z,100159.95
2019-05-05T09:55:44.456Z,100164.25
2019-05-05T09:58:13.957Z,100163.81
2019-05-05T10:00:45.227Z,100160.55
2019-05-05T10:03:14.785Z,100157.88
2019-05-05T10:05:45.708Z,100163.55
2019-05-05T10:08:15.093Z,100171.61
2019-05-05T10:10:44.552Z,100174.81
2019-05-05T10:13:14.955Z,100171.69
2019-05-05T10:15:44.670Z,100171.14
2019-05-05T10:18:14.343Z,100184.68
2019-05-05T10:20:43.752Z,100194.14
2019-05-05T10:23:14.259Z,100188.81
2019-05-05T10:25:50.538Z,100190.95
2019-05-05T10:28:20.235Z,100198.28
2019-05-05T10:30:49.637Z,100192.87
2019-05-05T10:33:19.087Z,100195.84
2019-05-05T10:35:48.852Z,100197.36
2019-05-05T10:38:18.258Z,100193.81
2019-05-05T10:40:48.377Z,100191.54
2019-05-05T10:43:17.882Z,100194.27
2019-05-05T10:45:47.298Z,100185.31
2019-05-05T10:48:16.669Z,100191.89
2019-05-05T10:50:46.049Z,100179.78
2019-05-05T10:53:15.459Z,100189.78
2019-05-05T10:55:48.075Z,100187.84
2019-05-05T10:58:17.471Z,100181.45
2019-05-05T11:00:51.037Z,100187.42
2019-05-05T11:03:20.962Z,100182.23
2019-05-05T11:05:50.405Z,100183.83
2019-05-05T11:08:20.102Z,100185.31
2019-05-05T11:10:49.506Z,100188.41
2019-05-05T11:13:18.891Z,100193.64
2019-05-05T11:15:48.338Z,100191.28
2019-05-05T11:18:19.354Z,100191.08
2019-05-05T11:20:48.828Z,100197.41
2019-05-05T11:23:18.192Z,100212.32
2019-05-05T11:25:50.243Z,100232.70
2019-05-05T11:28:19.645Z,100245.23
2019-05-05T11:30:49.113Z,100249.38
2019-05-05T11:33:35.392Z,100265.69
2019-05-05T11:36:09.659Z,100268.42
2019-05-05T11:38:41.451Z,100277.31
2019-05-05T11:41:10.600Z,100277.19
2019-05-05T11:43:39.991Z,100277.00
2019-05-05T11:46:09.511Z,100272.22
2019-05-05T11:48:38.950Z,100274.34
2019-05-05T11:51:08.326Z,100261.65
2019-05-05T11:53:37.730Z,100258.55
2019-05-05T11:56:07.156Z,100244.02
2019-05-05T11:58:36.533Z,100236.20
2019-05-05T12:01:13.885Z,100233.95
2019-05-05T12:03:44.372Z,100234.48
2019-05-05T12:06:14.770Z,100233.61
2019-05-05T12:08:45.862Z,100228.45
2019-05-05T12:11:15.646Z,100236.72
2019-05-05T12:13:45.015Z,100229.63
2019-05-05T12:16:16.049Z,100231.86
2019-05-05T12:18:45.434Z,100229.39
2019-05-05T12:21:15.129Z,100239.61
2019-05-05T12:23:44.829Z,100233.42
2019-05-05T12:26:34.762Z,100232.34
2019-05-05T12:29:06.069Z,100224.39
2019-05-05T12:31:37.074Z,100227.50
2019-05-05T12:34:06.451Z,100228.20
2019-05-05T12:36:35.851Z,100228.44
2019-05-05T12:39:26.099Z,100231.11
2019-05-05T12:41:55.485Z,100231.27
2019-05-05T12:44:26.543Z,100229.67
2019-05-05T12:46:57.551Z,100233.50
2019-05-05T12:49:27.825Z,100230.25
2019-05-05T12:51:57.864Z,100227.65
2019-05-05T12:54:27.881Z,100225.86
2019-05-05T12:56:58.028Z,100225.01
2019-05-05T12:59:28.335Z,100230.59
2019-05-05T13:01:58.189Z,100222.16
2019-05-05T13:04:28.179Z,100219.72
2019-05-05T13:06:58.208Z,100219.98
2019-05-05T13:09:28.295Z,100212.47
2019-05-05T13:11:58.355Z,100215.86
2019-05-05T13:14:28.247Z,100208.59
2019-05-05T13:16:58.509Z,100205.23
2019-05-05T13:19:38.822Z,100204.28
2019-05-05T13:22:22.028Z,100205.81
2019-05-05T13:24:54.043Z,100200.77
2019-05-05T13:27:25.232Z,100198.80
2019-05-05T13:29:54.611Z,100194.47
2019-05-05T13:32:24.759Z,100199.22
2019-05-05T13:34:54.643Z,100201.33
2019-05-05T13:37:24.520Z,100197.94
2019-05-05T13:39:54.031Z,100191.07
2019-05-05T13:42:24.390Z,100193.92
2019-05-05T13:44:55.627Z,100201.22
2019-05-05T13:47:25.034Z,100195.27
2019-05-05T13:50:03.707Z,100192.54
2019-05-05T13:52:33.715Z,100196.08
2019-05-05T13:55:03.172Z,100191.00
2019-05-05T13:57:33.879Z,100189.10
2019-05-05T14:00:04.464Z,100190.95
2019-05-05T14:02:33.899Z,100188.70
2019-05-05T14:05:04.589Z,100179.92
2019-05-05T14:07:34.340Z,100188.11
2019-05-05T14:10:04.793Z,100187.45
2019-05-05T14:12:34.573Z,100182.72
2019-05-05T14:15:05.132Z,100186.63
2019-05-05T14:17:34.506Z,100182.72
2019-05-05T14:20:11.705Z,100180.11
2019-05-05T14:22:37.012Z,100178.88
2019-05-05T14:25:21.581Z,100192.16
2019-05-05T14:27:51.036Z,100193.59
2019-05-05T14:30:27.279Z,100201.75
2019-05-05T14:32:58.640Z,100214.54
2019-05-05T14:35:34.208Z,100219.94
2019-05-05T14:38:11.503Z,100216.22
2019-05-05T14:40:41.056Z,100222.25
2019-05-05T14:43:10.430Z,100218.06
2019-05-05T14:45:39.808Z,100221.85
2019-05-05T14:48:09.187Z,100234.73
2019-05-05T14:50:38.579Z,100231.59
2019-05-05T14:53:07.946Z,100231.91
2019-05-05T14:55:37.350Z,100229.28
2019-05-05T14:58:06.715Z,100220.33
2019-05-05T15:00:36.097Z,100224.94
2019-05-05T15:03:05.853Z,100221.84
2019-05-05T15:05:36.880Z,100220.13
2019-05-05T15:08:08.097Z,100216.07
2019-05-05T15:10:48.057Z,100216.53
2019-05-05T15:13:18.053Z,100214.45
2019-05-05T15:15:49.054Z,100217.86
2019-05-05T15:18:18.359Z,100216.36
2019-05-05T15:20:47.795Z,100215.06
2019-05-05T15:23:24.332Z,100210.72
2019-05-05T15:25:54.131Z,100211.73
2019-05-05T15:28:24.656Z,100206.25
2019-05-05T15:30:54.707Z,100211.69
2019-05-05T15:33:24.422Z,100208.86
2019-05-05T15:35:54.524Z,100215.78
2019-05-05T15:38:24.508Z,100215.16
2019-05-05T15:40:54.654Z,100213.66
2019-05-05T15:43:24.625Z,100213.69
2019-05-05T15:45:54.194Z,100207.61
2019-05-05T15:48:23.628Z,100212.83
2019-05-05T15:50:54.635Z,100211.58
2019-05-05T15:53:24.189Z,100207.22
2019-05-05T15:55:53.988Z,100200.00
2019-05-05T15:58:23.690Z,100208.50
2019-05-05T16:00:53.871Z,100202.30
2019-05-05T16:03:23.301Z,100208.88
2019-05-05T16:05:54.326Z,100212.55
2019-05-05T16:08:23.839Z,100207.65
2019-05-05T16:10:54.626Z,100202.05
2019-05-05T16:13:24.163Z,100203.09
2019-05-05T16:15:55.761Z,100201.68
2019-05-05T16:18:29.656Z,100198.36
2019-05-05T16:21:09.463Z,100201.05
2019-05-05T16:23:40.491Z,100199.63
2019-05-05T16:26:09.955Z,100204.98
2019-05-05T16:28:39.331Z,100209.86
2019-05-05T16:31:08.708Z,100232.53
2019-05-05T16:33:38.154Z,100229.55
2019-05-05T16:36:07.536Z,100221.58
2019-05-05T16:38:37.273Z,100232.34
2019-05-05T16:41:06.941Z,100234.73
2019-05-05T16:43:36.325Z,100241.01
2019-05-05T16:46:05.692Z,100229.70
2019-05-05T16:48:35.098Z,100221.19
2019-05-05T16:51:06.143Z,100223.52
2019-05-05T16:53:37.137Z,100223.59
2019-05-05T16:56:11.429Z,100219.11
2019-05-05T16:58:40.906Z,100215.81
2019-05-05T17:01:11.927Z,100221.20
2019-05-05T17:03:45.401Z,100213.44
2019-05-05T17:06:14.016Z,100211.59
2019-05-05T17:08:44.450Z,100209.11
2019-05-05T17:11:15.000Z,100210.88
2019-05-05T17:13:46.244Z,100216.02
2019-05-05T17:16:35.271Z,100216.87
2019-05-05T17:19:07.219Z,100217.64
2019-05-05T17:21:47.260Z,100218.73
2019-05-05T17:24:28.243Z,100219.23
2019-05-05T17:26:57.693Z,100224.86
2019-05-05T17:29:27.097Z,100224.95
2019-05-05T17:31:56.455Z,100225.75
2019-05-05T17:34:25.838Z,100227.65
2019-05-05T17:36:55.566Z,100228.00
2019-05-05T17:39:26.580Z,100230.25
2019-05-05T17:41:57.616Z,100226.45
2019-05-05T17:44:33.683Z,100223.51
2019-05-05T17:47:04.815Z,100225.01
2019-05-05T17:49:51.904Z,100218.62
2019-05-05T17:52:22.928Z,100222.19
2019-05-05T17:54:53.918Z,100214.97
2019-05-05T17:57:23.677Z,100218.12
2019-05-05T17:59:53.638Z,100213.02
2019-05-05T18:02:23.660Z,100211.43
2019-05-05T18:04:54.113Z,100208.53
2019-05-05T18:07:25.366Z,100209.30
2019-05-05T18:09:56.440Z,100214.17
2019-05-05T18:12:29.956Z,100216.77
2019-05-05T18:15:04.458Z,100211.94
2019-05-05T18:17:34.090Z,100217.49
2019-05-05T18:20:04.549Z,100218.48
2019-05-05T18:22:34.375Z,100216.71
2019-05-05T18:25:05.040Z,100216.99
2019-05-05T18:27:34.554Z,100225.79
2019-05-05T18:30:05.651Z,100217.86
2019-05-05T18:32:35.078Z,100220.83
2019-05-05T18:35:06.747Z,100226.73
2019-05-05T18:37:36.257Z,100231.36
2019-05-05T18:40:07.371Z,100233.27
2019-05-05T18:42:36.807Z,100234.53
2019-05-05T18:45:12.675Z,100239.05
2019-05-05T18:47:43.403Z,100235.45
2019-05-05T18:50:13.846Z,100239.05
2019-05-05T18:52:45.152Z,100236.84
2019-05-05T18:55:14.772Z,100240.99
2019-05-05T18:57:44.538Z,100245.00
2019-05-05T19:00:17.652Z,100248.29
2019-05-05T19:02:48.671Z,100255.58
2019-05-05T19:05:19.842Z,100252.69
2019-05-05T19:07:55.520Z,100259.86
2019-05-05T19:10:24.125Z,100261.76
2019-05-05T19:12:54.230Z,100258.27
2019-05-05T19:15:24.386Z,100256.12
2019-05-05T19:17:54.097Z,100264.00
2019-05-05T19:20:36.804Z,100265.19
2019-05-05T19:23:06.248Z,100269.45
2019-05-05T19:25:35.973Z,100270.40
2019-05-05T19:28:05.500Z,100275.47
2019-05-05T19:30:36.126Z,100275.42
2019-05-05T19:33:06.965Z,100274.98
2019-05-05T19:35:43.720Z,100273.70
2019-05-05T19:38:07.707Z,100283.24
2019-05-05T19:40:37.165Z,100280.06
2019-05-05T19:43:06.813Z,100284.61
2019-05-05T19:45:36.254Z,100285.34
2019-05-05T19:48:06.118Z,100284.67
2019-05-05T19:50:37.228Z,100294.87
2019-05-05T19:53:08.248Z,100296.23
2019-05-05T19:55:37.613Z,100297.29
2019-05-05T19:58:06.991Z,100305.36
2019-05-05T20:00:38.575Z,100298.89
2019-05-05T20:03:07.730Z,100302.56
2019-05-05T20:05:37.476Z,100303.23
2019-05-05T20:08:06.872Z,100298.36
2019-05-05T20:10:36.385Z,100304.64
2019-05-05T20:13:05.909Z,100298.37
2019-05-05T20:15:49.101Z,100302.99
2019-05-05T20:18:18.472Z,100303.23
2019-05-05T20:21:00.806Z,100302.50
2019-05-05T20:23:19.435Z,100305.88
2019-05-05T20:25:48.804Z,100303.49
2019-05-05T20:28:18.228Z,100309.45
2019-05-05T20:30:47.875Z,100308.29
2019-05-05T20:33:21.384Z,100311.63
2019-05-05T20:35:53.862Z,100310.22
2019-05-05T20:38:34.344Z,100313.91
2019-05-05T20:41:11.457Z,100310.53
2019-05-05T20:43:40.848Z,100310.97
2019-05-05T20:46:10.773Z,100306.91
2019-05-05T20:48:41.336Z,100304.77
2019-05-05T20:51:10.791Z,100305.17
2019-05-05T20:53:40.167Z,100312.03
2019-05-05T20:56:09.561Z,100313.52
2019-05-05T20:58:39.254Z,100314.92
2019-05-05T21:01:08.630Z,100313.71
2019-05-05T21:03:38.006Z,100316.39
2019-05-05T21:06:07.390Z,100316.39
2019-05-05T21:08:36.774Z,100320.14
2019-05-05T21:11:06.182Z,100312.02
2019-05-05T21:13:35.629Z,100320.81
2019-05-05T21:16:05.019Z,100321.20
2019-05-05T21:18:34.891Z,100322.45
2019-05-05T21:21:06.501Z,100328.18
2019-05-05T21:23:37.794Z,100330.14
2019-05-05T21:26:08.813Z,100327.09
2019-05-05T21:28:38.213Z,100330.03
2019-05-05T21:31:07.604Z,100324.22
2019-05-05T21:33:37.228Z,100329.94
2019-05-05T21:36:06.609Z,100328.14
2019-05-05T21:38:35.990Z,100323.64
2019-05-05T21:41:05.396Z,100327.16
2019-05-05T21:43:35.121Z,100333.97
2019-05-05T21:46:05.152Z,100333.84
2019-05-05T21:48:35.425Z,100331.48
2019-05-05T21:51:24.844Z,100333.38
2019-05-05T21:53:56.098Z,100336.62
2019-05-05T21:56:29.639Z,100335.16
2019-05-05T21:58:59.373Z,100330.94
2019-05-05T22:01:29.951Z,100333.19
2019-05-05T22:03:59.315Z,100335.05
2019-05-05T22:06:29.048Z,100331.63
2019-05-05T22:08:58.419Z,100328.80
2019-05-05T22:11:27.801Z,100331.21
2019-05-05T22:13:57.193Z,100330.39
2019-05-05T22:16:26.572Z,100324.70
2019-05-05T22:18:55.968Z,100331.87
2019-05-05T22:21:36.151Z,100332.14
2019-05-05T22:24:16.176Z,100327.28
2019-05-05T22:26:45.866Z,100322.31
2019-05-05T22:29:17.152Z,100325.68
2019-05-05T22:31:46.648Z,100329.61
2019-05-05T22:34:16.174Z,100327.59
2019-05-05T22:36:45.642Z,100330.90
2019-05-05T22:39:16.965Z,100333.84
2019-05-05T22:41:46.376Z,100334.41
2019-05-05T22:44:15.736Z,100326.58
2019-05-05T22:46:45.490Z,100329.15
2019-05-05T22:49:14.881Z,100336.21
2019-05-05T22:51:44.859Z,100335.09
2019-05-05T22:54:14.943Z,100333.30
2019-05-05T22:56:44.946Z,100331.41
2019-05-05T22:59:14.700Z,100333.52
2019-05-05T23:01:44.310Z,100331.52
2019-05-05T23:04:34.957Z,100333.45
2019-05-05T23:07:14.436Z,100326.21
2019-05-05T23:09:44.380Z,100338.03
2019-05-05T23:12:14.154Z,100334.64
2019-05-05T23:14:43.852Z,100327.95
2019-05-05T23:17:14.852Z,100322.80
2019-05-05T23:20:04.781Z,100323.38
2019-05-05T23:22:52.177Z,100321.38
2019-05-05T23:25:24.129Z,100314.02
2019-05-05T23:27:54.751Z,100321.11
2019-05-05T23:30:38.382Z,100320.56
2019-05-05T23:32:55.779Z,100317.72
2019-05-05T23:35:25.178Z,100318.69
2019-05-05T23:37:55.223Z,100323.45
2019-05-05T23:40:27.698Z,100323.45
2019-05-05T23:42:57.412Z,100327.04
2019-05-05T23:45:26.810Z,100326.30
2019-05-05T23:47:56.578Z,100327.36
2019-05-05T23:50:26.017Z,100327.83
2019-05-05T23:52:55.403Z,100327.66
2019-05-05T23:55:25.162Z,100325.34
2019-05-05T23:57:55.055Z,100319.56
